createdAt,value
2019-05-26T00:02:30.185Z,17.96
2019-05-26T00:05:02.760Z,17.97
2019-05-26T00:07:35.415Z,18.00
2019-05-26T00:10:10.197Z,17.93
2019-05-26T00:12:42.843Z,17.89
2019-05-26T00:15:15.356Z,17.92
2019-05-26T00:17:47.674Z,17.87
2019-05-26T00:20:19.899Z,17.87
2019-05-26T00:22:53.575Z,17.87
2019-05-26T00:25:25.767Z,17.80
2019-05-26T00:27:57.934Z,17.85
2019-05-26T00:30:30.378Z,17.81
2019-05-26T00:33:02.717Z,17.74
2019-05-26T00:35:35.217Z,17.75
2019-05-26T00:38:07.647Z,17.75
2019-05-26T00:40:39.972Z,17.76
2019-05-26T00:43:12.392Z,17.79
2019-05-26T00:45:44.468Z,17.71
2019-05-26T00:48:16.867Z,17.70
2019-05-26T00:50:49.159Z,17.65
2019-05-26T00:53:21.491Z,17.68
2019-05-26T00:55:53.779Z,17.67
2019-05-26T00:58:25.923Z,17.73
2019-05-26T01:00:58.085Z,17.72
2019-05-26T01:03:30.329Z,17.74
2019-05-26T01:06:02.625Z,17.72
2019-05-26T01:08:34.893Z,17.70
2019-05-26T01:11:07.157Z,17.68
2019-05-26T01:13:39.626Z,17.69
2019-05-26T01:16:11.834Z,17.73
2019-05-26T01:18:44.082Z,17.75
2019-05-26T01:21:16.224Z,17.75
2019-05-26T01:23:48.500Z,17.73
2019-05-26T01:26:20.594Z,17.72
2019-05-26T01:28:52.881Z,17.78
2019-05-26T01:31:25.178Z,17.82
2019-05-26T01:33:57.640Z,17.81
2019-05-26T01:36:30.432Z,17.73
2019-05-26T01:39:04.305Z,17.85
2019-05-26T01:41:36.641Z,17.83
2019-05-26T01:44:08.989Z,17.77
2019-05-26T01:46:41.274Z,17.74
2019-05-26T01:49:13.719Z,17.66
2019-05-26T01:51:46.105Z,17.64
2019-05-26T01:54:18.568Z,17.65
2019-05-26T01:56:50.826Z,17.70
2019-05-26T01:59:24.232Z,17.71
2019-05-26T02:01:58.755Z,17.73
2019-05-26T02:04:30.426Z,17.73
2019-05-26T02:07:02.654Z,17.73
2019-05-26T02:09:34.969Z,17.71
2019-05-26T02:12:07.378Z,17.75
2019-05-26T02:14:39.650Z,17.76
2019-05-26T02:17:11.927Z,17.83
2019-05-26T02:19:44.696Z,17.93
2019-05-26T02:22:17.087Z,17.97
2019-05-26T02:24:49.416Z,17.88
2019-05-26T02:27:21.723Z,17.81
2019-05-26T02:29:54.069Z,17.81
2019-05-26T02:32:26.390Z,17.81
2019-05-26T02:34:58.867Z,17.77
2019-05-26T02:37:31.276Z,17.73
2019-05-26T02:40:04.981Z,17.76
2019-05-26T02:42:37.420Z,17.71
2019-05-26T02:45:11.134Z,17.73
2019-05-26T02:47:43.802Z,17.72
2019-05-26T02:50:17.971Z,17.73
2019-05-26T02:52:50.485Z,17.72
2019-05-26T02:55:23.995Z,17.74
2019-05-26T02:57:56.254Z,17.74
2019-05-26T03:00:45.847Z,17.71
2019-05-26T03:03:17.451Z,17.71
2019-05-26T03:05:49.415Z,17.72
2019-05-26T03:08:23.252Z,17.76
2019-05-26T03:10:57.103Z,17.82
2019-05-26T03:13:31.599Z,17.88
2019-05-26T03:16:05.896Z,17.93
2019-05-26T03:18:41.436Z,17.97
2019-05-26T03:21:14.279Z,17.95
2019-05-26T03:23:49.742Z,18.03
2019-05-26T03:26:23.564Z,18.08
2019-05-26T03:28:55.915Z,18.02
2019-05-26T03:31:28.179Z,18.09
2019-05-26T03:34:00.523Z,18.11
2019-05-26T03:36:32.893Z,18.12
2019-05-26T03:39:08.556Z,18.13
2019-05-26T03:41:41.227Z,18.03
2019-05-26T03:44:13.286Z,18.04
2019-05-26T03:46:45.417Z,18.10
2019-05-26T03:49:17.616Z,18.11
2019-05-26T03:51:49.938Z,18.13
2019-05-26T03:54:22.371Z,18.14
2019-05-26T03:56:54.617Z,18.27
2019-05-26T03:59:26.845Z,18.15
2019-05-26T04:01:59.293Z,18.19
2019-05-26T04:04:32.567Z,18.20
2019-05-26T04:07:04.991Z,18.19
2019-05-26T04:09:37.187Z,18.24
2019-05-26T04:12:09.482Z,18.15
2019-05-26T04:14:41.677Z,18.13
2019-05-26T04:17:14.287Z,18.12
2019-05-26T04:19:46.608Z,18.05
2019-05-26T04:22:18.866Z,18.02
2019-05-26T04:24:51.227Z,18.04
2019-05-26T04:27:23.504Z,17.92
2019-05-26T04:29:55.509Z,18.02
2019-05-26T04:32:27.850Z,18.02
2019-05-26T04:35:00.021Z,18.07
2019-05-26T04:37:32.408Z,17.95
2019-05-26T04:40:25.133Z,18.03
2019-05-26T04:42:41.810Z,17.97
2019-05-26T04:45:15.254Z,17.97
2019-05-26T04:47:47.804Z,17.99
2019-05-26T04:50:20.007Z,18.03
2019-05-26T04:53:05.599Z,18.08
2019-05-26T04:55:26.511Z,18.14
2019-05-26T04:57:59.022Z,18.22
2019-05-26T05:00:31.394Z,18.17
2019-05-26T05:03:03.779Z,18.25
2019-05-26T05:05:38.449Z,18.31
2019-05-26T05:08:11.916Z,18.36
2019-05-26T05:10:44.348Z,18.39
2019-05-26T05:13:16.625Z,18.48
2019-05-26T05:15:49.019Z,18.62
2019-05-26T05:18:21.398Z,18.87
2019-05-26T05:20:53.666Z,19.04
2019-05-26T05:23:25.958Z,19.09
2019-05-26T05:25:58.384Z,19.23
2019-05-26T05:28:30.781Z,19.37
2019-05-26T05:31:02.929Z,19.51
2019-05-26T05:33:35.249Z,19.55
2019-05-26T05:36:08.464Z,19.59
2019-05-26T05:38:40.919Z,19.64
2019-05-26T05:41:13.365Z,19.72
2019-05-26T05:43:45.713Z,19.85
2019-05-26T05:46:19.011Z,19.77
2019-05-26T05:48:51.336Z,19.94
2019-05-26T05:51:23.711Z,19.93
2019-05-26T05:53:56.221Z,19.98
2019-05-26T05:56:28.504Z,19.94
2019-05-26T05:59:00.911Z,19.92
2019-05-26T06:01:33.107Z,19.84
2019-05-26T06:04:05.474Z,19.92
2019-05-26T06:06:37.799Z,19.94
2019-05-26T06:09:09.993Z,19.76
2019-05-26T06:11:42.137Z,19.83
2019-05-26T06:14:14.373Z,20.05
2019-05-26T06:16:46.724Z,20.11
2019-05-26T06:19:18.979Z,20.15
2019-05-26T06:21:51.482Z,20.10
2019-05-26T06:24:23.827Z,20.02
2019-05-26T06:26:56.160Z,19.83
2019-05-26T06:29:28.522Z,19.68
2019-05-26T06:32:01.182Z,19.68
2019-05-26T06:34:33.808Z,19.81
2019-05-26T06:37:06.056Z,19.81
2019-05-26T06:39:38.295Z,19.86
2019-05-26T06:42:12.962Z,19.90
2019-05-26T06:44:53.432Z,19.98
2019-05-26T06:47:19.847Z,20.13
2019-05-26T06:49:52.176Z,20.17
2019-05-26T06:52:24.532Z,20.19
2019-05-26T06:54:56.926Z,20.39
2019-05-26T06:57:29.261Z,20.49
2019-05-26T07:00:01.548Z,20.42
2019-05-26T07:02:33.961Z,20.37
2019-05-26T07:05:08.748Z,20.46
2019-05-26T07:07:41.095Z,20.56
2019-05-26T07:10:14.040Z,20.54
2019-05-26T07:12:47.516Z,20.61
2019-05-26T07:15:19.999Z,20.57
2019-05-26T07:17:52.552Z,20.65
2019-05-26T07:20:24.968Z,20.85
2019-05-26T07:22:57.185Z,20.91
2019-05-26T07:25:29.498Z,21.01
2019-05-26T07:28:01.607Z,21.17
2019-05-26T07:30:33.846Z,21.12
2019-05-26T07:33:06.162Z,21.08
2019-05-26T07:35:38.407Z,21.14
2019-05-26T07:38:11.704Z,21.47
2019-05-26T07:40:44.198Z,21.62
2019-05-26T07:43:16.579Z,21.66
2019-05-26T07:48:26.402Z,21.52
2019-05-26T07:50:58.800Z,21.72
2019-05-26T07:53:31.211Z,21.63
2019-05-26T07:56:03.541Z,21.36
2019-05-26T07:58:35.837Z,21.43
2019-05-26T08:01:08.024Z,21.66
2019-05-26T08:03:40.305Z,21.79
2019-05-26T08:06:13.501Z,21.92
2019-05-26T08:08:45.769Z,22.00
2019-05-26T08:11:18.178Z,22.31
2019-05-26T08:13:50.418Z,22.28
2019-05-26T08:16:22.680Z,22.46
2019-05-26T08:18:54.908Z,22.49
2019-05-26T08:21:27.102Z,22.68
2019-05-26T08:23:59.184Z,22.51
2019-05-26T08:26:31.474Z,22.29
2019-05-26T08:29:03.797Z,22.03
2019-05-26T08:31:36.099Z,22.32
2019-05-26T08:34:08.351Z,22.58
2019-05-26T08:36:40.706Z,22.75
2019-05-26T08:39:12.990Z,22.69
2019-05-26T08:41:46.171Z,22.51
2019-05-26T08:44:18.316Z,22.50
2019-05-26T08:46:50.610Z,22.55
2019-05-26T08:49:22.696Z,22.41
2019-05-26T08:51:55.015Z,22.20
2019-05-26T08:54:27.252Z,21.70
2019-05-26T08:56:59.541Z,21.69
2019-05-26T08:59:31.873Z,21.72
2019-05-26T09:02:04.513Z,21.95
2019-05-26T09:04:36.680Z,22.25
2019-05-26T09:07:08.968Z,22.54
2019-05-26T09:09:43.734Z,22.59
2019-05-26T09:12:16.125Z,22.81
2019-05-26T09:14:48.684Z,22.48
2019-05-26T09:17:21.107Z,21.93
2019-05-26T09:19:53.216Z,21.92
2019-05-26T09:22:25.464Z,22.01
2019-05-26T09:24:57.571Z,22.04
2019-05-26T09:27:29.775Z,22.09
2019-05-26T09:30:02.019Z,21.97
2019-05-26T09:32:35.360Z,21.65
2019-05-26T09:35:08.357Z,21.33
2019-05-26T09:37:40.587Z,21.22
2019-05-26T09:40:14.174Z,21.21
2019-05-26T09:42:46.491Z,21.46
2019-05-26T09:45:19.189Z,21.60
2019-05-26T09:47:51.475Z,21.58
2019-05-26T09:50:23.773Z,21.28
2019-05-26T09:52:56.688Z,20.71
2019-05-26T09:55:31.138Z,20.07
2019-05-26T09:58:06.704Z,19.79
2019-05-26T10:00:44.329Z,19.70
2019-05-26T10:03:17.375Z,19.68
2019-05-26T10:05:49.711Z,20.02
2019-05-26T10:08:21.915Z,20.38
2019-05-26T10:10:54.032Z,20.69
2019-05-26T10:13:31.843Z,20.85
2019-05-26T10:16:00.309Z,21.18
2019-05-26T10:18:32.457Z,21.56
2019-05-26T10:21:04.990Z,21.63
2019-05-26T10:23:37.488Z,21.73
2019-05-26T10:26:09.807Z,21.99
2019-05-26T10:28:42.153Z,22.39
2019-05-26T10:31:14.584Z,22.79
2019-05-26T10:33:46.798Z,22.98
2019-05-26T10:36:19.066Z,22.95
2019-05-26T10:38:51.386Z,22.74
2019-05-26T10:41:23.757Z,22.43
2019-05-26T10:43:56.064Z,22.22
2019-05-26T10:46:28.525Z,22.50
2019-05-26T10:49:01.963Z,22.83
2019-05-26T10:51:35.051Z,22.78
2019-05-26T10:54:07.394Z,22.68
2019-05-26T10:56:39.636Z,22.78
2019-05-26T10:59:12.022Z,23.17
2019-05-26T11:01:44.353Z,23.40
2019-05-26T11:04:16.791Z,23.63
2019-05-26T11:06:48.981Z,23.61
2019-05-26T11:09:21.390Z,23.27
2019-05-26T11:11:53.555Z,23.10
2019-05-26T11:14:25.897Z,22.92
2019-05-26T11:16:58.043Z,23.10
2019-05-26T11:19:31.268Z,23.29
2019-05-26T11:22:04.559Z,23.55
2019-05-26T11:24:36.787Z,23.62
2019-05-26T11:27:12.402Z,23.61
2019-05-26T11:29:43.025Z,23.40
2019-05-26T11:32:15.292Z,23.29
2019-05-26T11:35:00.671Z,23.17
2019-05-26T11:37:21.827Z,23.31
2019-05-26T11:39:54.963Z,22.88
2019-05-26T11:42:27.064Z,22.65
2019-05-26T11:44:59.419Z,22.67
2019-05-26T11:47:31.991Z,22.28
2019-05-26T11:50:07.021Z,22.42
2019-05-26T11:52:40.292Z,22.35
2019-05-26T11:55:13.051Z,22.46
2019-05-26T11:57:45.398Z,22.60
2019-05-26T12:00:19.638Z,22.52
2019-05-26T12:02:51.875Z,22.63
2019-05-26T12:05:24.410Z,22.50
2019-05-26T12:07:56.621Z,22.28
2019-05-26T12:10:28.908Z,22.25
2019-05-26T12:13:01.264Z,22.09
2019-05-26T12:15:33.607Z,22.04
2019-05-26T12:18:06.521Z,22.30
2019-05-26T12:20:39.933Z,22.81
2019-05-26T12:23:12.385Z,23.05
2019-05-26T12:25:44.568Z,23.12
2019-05-26T12:28:16.798Z,23.08
2019-05-26T12:30:49.244Z,23.12
2019-05-26T12:33:21.556Z,23.19
2019-05-26T12:35:54.183Z,23.23
2019-05-26T12:38:26.434Z,23.52
2019-05-26T12:40:59.583Z,23.57
2019-05-26T12:43:31.976Z,23.52
2019-05-26T12:46:04.302Z,23.56
2019-05-26T12:48:36.709Z,23.39
2019-05-26T12:51:09.992Z,23.32
2019-05-26T12:53:42.094Z,23.23
2019-05-26T12:56:14.387Z,22.99
2019-05-26T12:58:46.599Z,22.86
2019-05-26T13:01:19.025Z,22.66
2019-05-26T13:03:51.267Z,22.39
2019-05-26T13:06:23.636Z,22.16
2019-05-26T13:08:55.991Z,22.00
2019-05-26T13:11:28.324Z,21.80
2019-05-26T13:14:00.580Z,22.21
2019-05-26T13:16:35.830Z,22.78
2019-05-26T13:19:06.778Z,23.30
2019-05-26T13:21:39.338Z,23.62
2019-05-26T13:24:11.605Z,23.96
2019-05-26T13:26:43.757Z,23.93
2019-05-26T13:29:15.962Z,23.96
2019-05-26T13:31:48.271Z,24.30
2019-05-26T13:34:20.689Z,24.60
2019-05-26T13:36:53.076Z,24.64
2019-05-26T13:39:25.873Z,24.80
2019-05-26T13:41:58.151Z,24.49
2019-05-26T13:44:30.656Z,24.08
2019-05-26T13:47:04.058Z,23.88
2019-05-26T13:49:36.458Z,23.72
2019-05-26T13:52:08.739Z,23.56
2019-05-26T13:54:40.804Z,23.50
2019-05-26T13:57:13.078Z,23.29
2019-05-26T13:59:45.450Z,23.01
2019-05-26T14:02:17.912Z,22.58
2019-05-26T14:04:50.181Z,22.21
2019-05-26T14:07:22.438Z,21.46
2019-05-26T14:09:54.671Z,20.94
2019-05-26T14:12:27.162Z,20.18
2019-05-26T14:14:59.393Z,19.62
2019-05-26T14:17:33.552Z,19.57
2019-05-26T14:20:07.392Z,19.45
2019-05-26T14:22:39.727Z,19.49
2019-05-26T14:25:15.360Z,19.46
2019-05-26T14:27:45.840Z,19.50
2019-05-26T14:30:18.064Z,19.55
2019-05-26T14:32:50.809Z,19.59
2019-05-26T14:35:23.263Z,19.86
2019-05-26T14:37:55.616Z,20.22
2019-05-26T14:40:27.901Z,20.53
2019-05-26T14:43:00.330Z,20.74
2019-05-26T14:45:32.565Z,20.95
2019-05-26T14:48:06.020Z,21.20
2019-05-26T14:50:40.598Z,21.58
2019-05-26T14:53:13.247Z,22.42
2019-05-26T14:55:45.423Z,23.02
2019-05-26T14:58:17.749Z,23.94
2019-05-26T15:00:49.986Z,24.55
2019-05-26T15:03:22.353Z,25.36
2019-05-26T15:06:05.477Z,26.14
2019-05-26T15:08:28.578Z,26.01
2019-05-26T15:11:00.899Z,25.95
2019-05-26T15:13:33.168Z,26.47
2019-05-26T15:16:10.019Z,27.04
2019-05-26T15:18:39.791Z,26.50
2019-05-26T15:21:13.233Z,25.20
2019-05-26T15:23:45.415Z,23.84
2019-05-26T15:26:17.701Z,23.20
2019-05-26T15:28:49.892Z,22.65
2019-05-26T15:31:22.150Z,22.46
2019-05-26T15:33:55.605Z,22.37
2019-05-26T15:36:27.937Z,22.62
2019-05-26T15:39:00.460Z,22.77
2019-05-26T15:41:32.762Z,22.83
2019-05-26T15:44:04.957Z,22.99
2019-05-26T15:46:37.385Z,22.97
2019-05-26T15:49:09.657Z,22.78
2019-05-26T15:51:42.062Z,22.55
2019-05-26T15:54:14.295Z,22.54
2019-05-26T15:56:46.541Z,22.44
2019-05-26T15:59:18.877Z,22.30
2019-05-26T16:01:51.921Z,22.28
2019-05-26T16:04:24.303Z,22.22
2019-05-26T16:06:56.616Z,22.16
2019-05-26T16:09:29.103Z,22.15
2019-05-26T16:12:01.491Z,22.04
2019-05-26T16:14:33.801Z,22.01
2019-05-26T16:17:06.052Z,22.04
2019-05-26T16:19:38.330Z,21.92
2019-05-26T16:22:11.505Z,21.93
2019-05-26T16:24:45.240Z,21.90
2019-05-26T16:27:19.473Z,21.78
2019-05-26T16:29:52.274Z,21.72
2019-05-26T16:32:25.469Z,21.60
2019-05-26T16:34:57.821Z,21.54
2019-05-26T16:37:31.205Z,21.49
2019-05-26T16:40:04.134Z,21.41
2019-05-26T16:42:36.219Z,21.35
2019-05-26T16:45:09.256Z,21.35
2019-05-26T16:47:41.354Z,21.29
2019-05-26T16:50:13.667Z,21.34
2019-05-26T16:52:45.951Z,21.34
2019-05-26T16:55:18.331Z,21.23
2019-05-26T16:57:50.839Z,21.23
2019-05-26T17:00:23.165Z,21.21
2019-05-26T17:02:56.527Z,21.21
2019-05-26T17:05:28.917Z,21.25
2019-05-26T17:08:01.298Z,21.22
2019-05-26T17:10:34.879Z,21.21
2019-05-26T17:13:07.194Z,21.22
2019-05-26T17:15:39.575Z,21.26
2019-05-26T17:18:11.743Z,21.20
2019-05-26T17:20:46.891Z,21.23
2019-05-26T17:23:21.442Z,21.21
2019-05-26T17:25:53.893Z,21.22
2019-05-26T17:28:26.262Z,21.21
2019-05-26T17:30:58.454Z,21.16
2019-05-26T17:33:30.810Z,21.16
2019-05-26T17:36:03.173Z,21.12
2019-05-26T17:38:35.743Z,21.07
2019-05-26T17:41:08.052Z,21.09
2019-05-26T17:43:40.268Z,21.09
2019-05-26T17:46:15.116Z,21.04
2019-05-26T17:48:46.666Z,21.07
2019-05-26T17:51:19.288Z,21.05
2019-05-26T17:53:52.020Z,21.03
2019-05-26T17:56:24.439Z,20.98
2019-05-26T17:58:57.132Z,20.99
2019-05-26T18:01:29.639Z,20.96
2019-05-26T18:04:03.398Z,20.96
2019-05-26T18:06:38.986Z,20.91
2019-05-26T18:09:11.369Z,20.87
2019-05-26T18:11:43.863Z,20.85
2019-05-26T18:14:16.693Z,20.84
2019-05-26T18:16:49.199Z,20.81
2019-05-26T18:19:21.633Z,20.79
2019-05-26T18:21:54.450Z,20.79
2019-05-26T18:24:27.142Z,20.81
2019-05-26T18:26:59.455Z,20.75
2019-05-26T18:29:31.886Z,20.71
2019-05-26T18:32:04.474Z,20.70
2019-05-26T18:34:36.740Z,20.65
2019-05-26T18:37:09.105Z,20.66
2019-05-26T18:39:41.305Z,20.67
2019-05-26T18:42:13.593Z,20.64
2019-05-26T18:44:45.781Z,20.67
2019-05-26T18:47:18.408Z,20.66
2019-05-26T18:49:50.775Z,20.66
2019-05-26T18:52:23.156Z,20.67
2019-05-26T18:54:55.718Z,20.65
2019-05-26T18:57:27.989Z,20.66
2019-05-26T19:00:00.361Z,20.62
2019-05-26T19:02:32.701Z,20.62
2019-05-26T19:05:06.120Z,20.62
2019-05-26T19:07:38.677Z,20.59
2019-05-26T19:10:11.193Z,20.66
2019-05-26T19:12:43.775Z,20.65
2019-05-26T19:15:17.255Z,20.63
2019-05-26T19:17:49.618Z,20.61
2019-05-26T19:20:21.817Z,20.69
2019-05-26T19:22:58.561Z,20.64
2019-05-26T19:25:30.887Z,20.63
2019-05-26T19:28:03.295Z,20.60
2019-05-26T19:30:35.587Z,20.57
2019-05-26T19:33:07.844Z,20.59
2019-05-26T19:35:40.174Z,20.57
2019-05-26T19:38:12.948Z,20.59
2019-05-26T19:40:45.367Z,20.58
2019-05-26T19:43:17.742Z,20.61
2019-05-26T19:45:49.929Z,20.59
2019-05-26T19:48:34.912Z,20.55
2019-05-26T19:51:00.867Z,20.55
2019-05-26T19:53:33.346Z,20.57
2019-05-26T19:56:06.820Z,20.57
2019-05-26T19:58:39.208Z,20.60
2019-05-26T20:01:11.555Z,20.58
2019-05-26T20:03:44.871Z,20.56
2019-05-26T20:06:17.104Z,20.57
2019-05-26T20:08:49.546Z,20.62
2019-05-26T20:11:21.794Z,20.67
2019-05-26T20:13:54.075Z,20.64
2019-05-26T20:16:26.268Z,20.61
2019-05-26T20:18:58.503Z,20.54
2019-05-26T20:21:30.857Z,20.53
2019-05-26T20:24:03.133Z,20.50
2019-05-26T20:26:35.367Z,20.46
2019-05-26T20:29:07.604Z,20.45
2019-05-26T20:31:39.871Z,20.47
2019-05-26T20:34:12.191Z,20.53
2019-05-26T20:36:44.529Z,20.51
2019-05-26T20:39:16.873Z,20.47
2019-05-26T20:41:49.141Z,20.49
2019-05-26T20:44:21.351Z,20.51
2019-05-26T20:46:53.649Z,20.46
2019-05-26T20:49:25.920Z,20.43
2019-05-26T20:51:58.189Z,20.41
2019-05-26T20:54:30.464Z,20.42
2019-05-26T20:57:02.941Z,20.49
2019-05-26T20:59:35.268Z,20.44
2019-05-26T21:02:07.745Z,20.47
2019-05-26T21:04:41.065Z,20.53
2019-05-26T21:07:13.258Z,20.54
2019-05-26T21:09:45.779Z,20.46
2019-05-26T21:12:18.089Z,20.40
2019-05-26T21:14:50.590Z,20.35
2019-05-26T21:17:22.839Z,20.40
2019-05-26T21:19:55.300Z,20.34
2019-05-26T21:22:27.571Z,20.30
2019-05-26T21:25:03.226Z,20.26
2019-05-26T21:27:37.089Z,20.22
2019-05-26T21:30:10.759Z,20.17
2019-05-26T21:32:42.947Z,20.17
2019-05-26T21:35:15.342Z,20.09
2019-05-26T21:37:47.829Z,20.09
2019-05-26T21:40:20.327Z,20.03
2019-05-26T21:42:52.663Z,20.02
2019-05-26T21:45:24.996Z,20.02
2019-05-26T21:47:57.306Z,20.07
2019-05-26T21:50:29.553Z,20.02
2019-05-26T21:53:01.832Z,20.00
2019-05-26T21:55:34.076Z,20.00
2019-05-26T21:58:06.422Z,20.02
2019-05-26T22:00:43.812Z,19.99
2019-05-26T22:03:17.743Z,19.95
2019-05-26T22:05:50.037Z,19.96
2019-05-26T22:08:22.344Z,20.02
2019-05-26T22:10:54.735Z,20.03
2019-05-26T22:13:27.155Z,20.02
2019-05-26T22:15:59.591Z,19.98
2019-05-26T22:18:31.856Z,19.93
2019-05-26T22:21:04.304Z,19.90
2019-05-26T22:23:36.607Z,19.89
2019-05-26T22:26:08.983Z,19.91
2019-05-26T22:28:41.178Z,19.93
2019-05-26T22:31:14.384Z,19.87
2019-05-26T22:33:46.611Z,19.84
2019-05-26T22:36:19.053Z,19.85
2019-05-26T22:38:51.216Z,19.85
2019-05-26T22:41:23.434Z,19.83
2019-05-26T22:43:55.700Z,19.82
2019-05-26T22:46:28.083Z,19.79
2019-05-26T22:49:01.141Z,19.74
2019-05-26T22:51:33.454Z,19.71
2019-05-26T22:54:06.873Z,19.67
2019-05-26T22:56:40.301Z,19.72
2019-05-26T22:59:12.666Z,19.63
2019-05-26T23:01:44.997Z,19.61
2019-05-26T23:04:17.231Z,19.58
2019-05-26T23:06:50.690Z,19.60
2019-05-26T23:09:22.885Z,19.54
2019-05-26T23:11:55.399Z,19.50
2019-05-26T23:14:27.638Z,19.50
2019-05-26T23:17:00.160Z,19.47
2019-05-26T23:19:32.356Z,19.42
2019-05-26T23:22:04.826Z,19.40
2019-05-26T23:24:37.156Z,19.36
2019-05-26T23:27:09.489Z,19.35
2019-05-26T23:29:41.784Z,19.34
2019-05-26T23:32:14.201Z,19.33
2019-05-26T23:34:46.402Z,19.32
2019-05-26T23:37:18.757Z,19.28
2019-05-26T23:39:51.188Z,19.22
2019-05-26T23:42:23.581Z,19.21
2019-05-26T23:44:57.057Z,19.11
2019-05-26T23:47:29.483Z,19.06
2019-05-26T23:50:02.813Z,19.08
2019-05-26T23:52:35.249Z,19.04
2019-05-26T23:55:08.188Z,19.01
2019-05-26T23:57:40.546Z,18.97
